createdAt,value
2024-05-09T00:00:44.959Z,26.73
2024-05-09T00:03:12.663Z,26.55
2024-05-09T00:05:44.249Z,26.67
2024-05-09T00:08:12.456Z,26.25
2024-05-09T00:10:40.896Z,25.80
2024-05-09T00:13:10.421Z,26.45
2024-05-09T00:15:38.293Z,25.80
2024-05-09T00:18:07.708Z,26.33
2024-05-09T00:20:39.586Z,26.58
2024-05-09T00:23:13.807Z,26.02
2024-05-09T00:25:43.819Z,26.92
2024-05-09T00:28:12.490Z,26.08
2024-05-09T00:30:39.943Z,26.50
2024-05-09T00:33:09.100Z,27.13
2024-05-09T00:35:38.088Z,26.95
2024-05-09T00:38:05.732Z,26.73
2024-05-09T00:40:40.480Z,26.77
2024-05-09T00:43:11.412Z,26.60
2024-05-09T00:45:39.196Z,26.73
2024-05-09T00:48:08.853Z,26.60
2024-05-09T00:50:40.599Z,26.80
2024-05-09T00:53:11.069Z,27.15
2024-05-09T00:55:39.787Z,27.40
2024-05-09T00:58:08.622Z,27.17
2024-05-09T01:00:39.755Z,26.92
2024-05-09T01:03:11.642Z,26.63
2024-05-09T01:05:40.845Z,27.38
2024-05-09T01:08:09.134Z,26.92
2024-05-09T01:10:37.645Z,27.40
2024-05-09T01:13:05.795Z,26.85
2024-05-09T01:15:34.506Z,26.50
2024-05-09T01:18:07.457Z,26.55
2024-05-09T01:23:09.021Z,25.20
2024-05-09T01:25:36.457Z,26.85
2024-05-09T01:28:03.841Z,26.25
2024-05-09T01:30:35.392Z,25.38
2024-05-09T01:33:09.924Z,25.87
2024-05-09T01:35:42.206Z,25.38
2024-05-09T01:38:13.433Z,25.35
2024-05-09T01:40:41.195Z,26.25
2024-05-09T01:43:10.092Z,25.95
2024-05-09T01:45:39.080Z,25.17
2024-05-09T01:48:07.300Z,25.60
2024-05-09T01:50:39.523Z,25.63
2024-05-09T01:53:10.573Z,25.90
2024-05-09T01:55:38.189Z,24.33
2024-05-09T01:58:05.846Z,25.25
2024-05-09T02:00:39.357Z,25.08
2024-05-09T02:03:13.884Z,24.85
2024-05-09T02:05:45.441Z,26.17
2024-05-09T02:08:19.339Z,25.55
2024-05-09T02:10:48.089Z,25.75
2024-05-09T02:13:16.671Z,26.23
2024-05-09T02:15:44.308Z,26.42
2024-05-09T02:18:12.170Z,26.35
2024-05-09T02:20:41.469Z,25.95
2024-05-09T02:23:09.755Z,26.52
2024-05-09T02:25:37.241Z,27.20
2024-05-09T02:28:04.593Z,26.90
2024-05-09T02:30:39.987Z,27.05
2024-05-09T02:33:11.934Z,27.08
2024-05-09T02:35:41.692Z,27.10
2024-05-09T02:38:12.966Z,26.50
2024-05-09T02:40:40.948Z,27.00
2024-05-09T02:43:10.399Z,26.50
2024-05-09T02:45:39.572Z,26.50
2024-05-09T02:48:10.057Z,27.23
2024-05-09T02:50:39.606Z,26.98
2024-05-09T02:53:09.348Z,26.70
2024-05-09T02:55:40.645Z,27.27
2024-05-09T02:58:08.313Z,27.30
2024-05-09T03:00:39.785Z,25.77
2024-05-09T03:03:11.793Z,27.63
2024-05-09T03:05:41.333Z,27.48
2024-05-09T03:08:08.956Z,27.25
2024-05-09T03:10:38.587Z,26.77
2024-05-09T03:13:12.980Z,26.38
2024-05-09T03:15:41.515Z,25.70
2024-05-09T03:18:09.546Z,24.98
2024-05-09T03:20:38.292Z,25.40
2024-05-09T03:23:09.923Z,25.23
2024-05-09T03:25:38.672Z,25.40
2024-05-09T03:28:06.483Z,25.02
2024-05-09T03:30:40.874Z,25.27
2024-05-09T03:33:11.783Z,25.25
2024-05-09T03:35:39.378Z,25.35
2024-05-09T03:38:06.635Z,24.55
2024-05-09T03:40:33.941Z,24.48
2024-05-09T03:43:01.079Z,24.90
2024-05-09T03:45:28.206Z,24.40
2024-05-09T03:47:55.609Z,24.88
2024-05-09T03:50:30.011Z,24.73
2024-05-09T03:53:02.263Z,23.92
2024-05-09T03:55:29.584Z,24.85
2024-05-09T03:57:57.143Z,24.13
2024-05-09T04:00:31.357Z,24.95
2024-05-09T04:03:07.159Z,24.13
2024-05-09T04:05:36.892Z,24.55
2024-05-09T04:08:04.466Z,24.92
2024-05-09T04:10:34.170Z,24.10
2024-05-09T04:13:03.266Z,24.45
2024-05-09T04:15:31.007Z,24.58
2024-05-09T04:17:58.387Z,24.45
2024-05-09T04:20:35.999Z,23.80
2024-05-09T04:23:08.388Z,24.45
2024-05-09T04:25:36.547Z,24.45
2024-05-09T04:28:03.953Z,24.70
2024-05-09T04:30:37.647Z,23.27
2024-05-09T04:33:10.122Z,24.00
2024-05-09T04:35:42.636Z,23.55
2024-05-09T04:38:10.385Z,23.48
2024-05-09T04:40:38.167Z,22.98
2024-05-09T04:43:06.968Z,23.67
2024-05-09T04:45:35.191Z,24.02
2024-05-09T04:48:03.174Z,22.85
2024-05-09T04:50:36.760Z,23.27
2024-05-09T04:53:09.263Z,23.40
2024-05-09T04:55:37.860Z,23.33
2024-05-09T04:58:07.205Z,23.00
2024-05-09T05:00:37.293Z,23.48
2024-05-09T05:03:10.643Z,23.33
2024-05-09T05:05:42.870Z,22.85
2024-05-09T05:08:19.076Z,23.08
2024-05-09T05:10:48.081Z,23.38
2024-05-09T05:13:18.265Z,22.50
2024-05-09T05:15:50.751Z,21.98
2024-05-09T05:18:18.778Z,22.48
2024-05-09T05:20:46.462Z,22.83
2024-05-09T05:23:19.223Z,22.50
2024-05-09T05:25:51.503Z,22.33
2024-05-09T05:28:19.549Z,21.63
2024-05-09T05:30:46.979Z,22.10
2024-05-09T05:33:15.591Z,21.27
2024-05-09T05:35:43.262Z,21.45
2024-05-09T05:38:11.329Z,21.40
2024-05-09T05:40:39.894Z,21.40
2024-05-09T05:43:10.283Z,21.15
2024-05-09T05:45:38.198Z,20.83
2024-05-09T05:48:08.256Z,20.35
2024-05-09T05:50:37.916Z,20.60
2024-05-09T05:53:08.274Z,20.23
2024-05-09T05:55:37.624Z,20.08
2024-05-09T05:58:05.266Z,19.67
2024-05-09T06:00:38.770Z,19.25
2024-05-09T06:03:12.017Z,20.52
2024-05-09T06:05:40.484Z,19.52
2024-05-09T06:08:08.570Z,20.08
2024-05-09T06:10:39.408Z,19.75
2024-05-09T06:13:11.528Z,19.02
2024-05-09T06:15:42.721Z,19.10
2024-05-09T06:18:12.743Z,19.08
2024-05-09T06:20:42.920Z,19.30
2024-05-09T06:23:11.394Z,18.83
2024-05-09T06:25:39.087Z,18.40
2024-05-09T06:28:06.690Z,18.95
2024-05-09T06:30:40.190Z,18.95
2024-05-09T06:33:12.983Z,18.73
2024-05-09T06:35:42.481Z,18.70
2024-05-09T06:38:09.978Z,18.45
2024-05-09T06:40:40.702Z,19.08
2024-05-09T06:43:14.459Z,18.80
2024-05-09T06:45:42.438Z,18.88
2024-05-09T06:48:10.375Z,19.10
2024-05-09T06:50:39.416Z,18.50
2024-05-09T06:53:08.565Z,18.83
2024-05-09T06:55:36.921Z,18.90
2024-05-09T06:58:06.718Z,18.38
2024-05-09T07:00:39.178Z,18.67
2024-05-09T07:03:14.770Z,19.55
2024-05-09T07:05:44.601Z,18.77
2024-05-09T07:08:12.166Z,19.20
2024-05-09T07:10:41.106Z,19.15
2024-05-09T07:13:12.637Z,19.15
2024-05-09T07:15:40.965Z,19.23
2024-05-09T07:18:12.852Z,19.15
2024-05-09T07:20:40.909Z,18.65
2024-05-09T07:23:12.559Z,18.60
2024-05-09T07:25:41.579Z,18.33
2024-05-09T07:28:16.680Z,18.45
2024-05-09T07:30:45.044Z,18.77
2024-05-09T07:33:21.227Z,17.88
2024-05-09T07:35:50.087Z,18.60
2024-05-09T07:38:17.409Z,18.80
2024-05-09T07:40:44.680Z,18.60
2024-05-09T07:43:16.438Z,19.20
2024-05-09T07:45:51.847Z,18.55
2024-05-09T07:52:37.348Z,17.98
2024-05-09T07:53:48.827Z,18.35
2024-05-09T07:56:21.638Z,18.80
2024-05-09T07:58:51.321Z,18.23
2024-05-09T08:01:19.064Z,17.92
2024-05-09T08:03:46.765Z,18.00
2024-05-09T08:06:14.353Z,17.90
2024-05-09T08:08:41.526Z,17.45
2024-05-09T08:11:08.807Z,17.48
2024-05-09T08:13:36.066Z,17.67
2024-05-09T08:16:03.322Z,17.98
2024-05-09T08:18:30.742Z,17.65
2024-05-09T08:20:58.892Z,17.48
2024-05-09T08:23:26.051Z,17.67
2024-05-09T08:25:53.282Z,18.65
2024-05-09T08:28:20.743Z,18.70
2024-05-09T08:30:48.414Z,18.20
2024-05-09T08:33:16.030Z,18.38
2024-05-09T08:35:43.328Z,18.77
2024-05-09T08:38:11.759Z,18.77
2024-05-09T08:40:39.265Z,18.15
2024-05-09T08:43:11.925Z,18.90
2024-05-09T08:45:43.969Z,18.70
2024-05-09T08:48:15.635Z,18.63
2024-05-09T08:50:45.252Z,19.02
2024-05-09T08:53:15.132Z,18.58
2024-05-09T08:55:44.051Z,18.48
2024-05-09T08:58:17.132Z,18.33
2024-05-09T09:00:45.997Z,19.05
2024-05-09T09:03:17.913Z,18.80
2024-05-09T09:06:07.483Z,19.52
2024-05-09T09:08:34.784Z,17.75
2024-05-09T09:11:02.017Z,18.63
2024-05-09T09:13:29.199Z,18.30
2024-05-09T09:15:59.566Z,18.23
2024-05-09T09:18:27.411Z,18.80
2024-05-09T09:20:55.091Z,18.50
2024-05-09T09:23:22.830Z,18.35
2024-05-09T09:25:50.828Z,19.02
2024-05-09T09:28:18.264Z,18.77
2024-05-09T09:30:46.425Z,17.92
2024-05-09T09:33:14.085Z,19.60
2024-05-09T09:35:41.379Z,17.83
2024-05-09T09:38:10.819Z,17.90
2024-05-09T09:40:46.806Z,18.13
2024-05-09T09:43:20.866Z,18.30
2024-05-09T09:45:53.514Z,17.88
2024-05-09T09:48:22.913Z,18.13
2024-05-09T09:50:52.276Z,18.27
2024-05-09T09:53:20.340Z,17.75
2024-05-09T09:55:48.474Z,18.58
2024-05-09T09:58:17.854Z,17.50
2024-05-09T10:00:45.604Z,17.83
2024-05-09T10:03:13.468Z,18.73
2024-05-09T10:05:44.030Z,19.17
2024-05-09T10:08:14.151Z,18.55
2024-05-09T10:10:47.929Z,18.33
2024-05-09T10:15:49.608Z,18.40
2024-05-09T10:18:17.243Z,18.05
2024-05-09T10:20:46.740Z,17.63
2024-05-09T10:23:30.911Z,17.98
2024-05-09T10:26:03.630Z,18.00
2024-05-09T10:28:36.140Z,18.95
2024-05-09T10:31:11.614Z,19.60
2024-05-09T10:33:52.902Z,19.00
2024-05-09T10:36:27.040Z,18.60
2024-05-09T10:38:55.318Z,19.63
2024-05-09T10:41:23.713Z,22.92
2024-05-09T10:43:52.155Z,18.02
2024-05-09T10:46:20.160Z,19.65
2024-05-09T10:48:48.700Z,18.55
2024-05-09T10:51:19.452Z,21.67
2024-05-09T10:53:48.326Z,20.98
2024-05-09T10:56:16.441Z,17.70
2024-05-09T10:58:43.740Z,18.15
2024-05-09T11:01:12.047Z,18.02
2024-05-09T11:03:40.339Z,18.38
2024-05-09T11:06:09.882Z,22.23
2024-05-09T11:08:38.214Z,17.33
2024-05-09T11:11:08.156Z,18.10
2024-05-09T11:13:38.288Z,17.70
2024-05-09T11:16:16.027Z,18.13
2024-05-09T11:18:43.894Z,18.17
2024-05-09T11:21:14.380Z,17.73
2024-05-09T11:23:41.902Z,17.90
2024-05-09T11:26:11.116Z,17.73
2024-05-09T11:28:38.415Z,17.83
2024-05-09T11:31:09.879Z,24.13
2024-05-09T11:33:39.559Z,17.98
2024-05-09T11:36:08.009Z,16.80
2024-05-09T11:38:35.482Z,17.10
2024-05-09T11:41:03.543Z,17.10
2024-05-09T11:43:30.904Z,22.33
2024-05-09T11:45:58.669Z,23.33
2024-05-09T11:48:26.745Z,21.58
2024-05-09T11:50:55.539Z,22.58
2024-05-09T11:53:23.220Z,21.45
2024-05-09T11:55:50.779Z,21.17
2024-05-09T11:58:19.255Z,20.98
2024-05-09T12:00:47.165Z,21.48
2024-05-09T12:03:14.883Z,17.52
2024-05-09T12:05:42.420Z,17.45
2024-05-09T12:08:10.035Z,19.25
2024-05-09T12:10:37.724Z,20.95
2024-05-09T12:13:06.810Z,21.73
2024-05-09T12:15:37.943Z,20.75
2024-05-09T12:18:07.454Z,20.75
2024-05-09T12:20:38.502Z,17.42
2024-05-09T12:23:09.428Z,17.27
2024-05-09T12:25:38.742Z,22.13
2024-05-09T12:28:06.752Z,21.60
2024-05-09T12:30:38.360Z,21.45
2024-05-09T12:33:12.643Z,16.90
2024-05-09T12:35:43.341Z,16.52
2024-05-09T12:38:12.978Z,22.60
2024-05-09T12:40:40.182Z,23.10
2024-05-09T12:43:09.147Z,21.60
2024-05-09T12:45:37.941Z,16.92
2024-05-09T12:48:08.562Z,17.15
2024-05-09T12:50:38.883Z,20.65
2024-05-09T12:53:06.300Z,23.17
2024-05-09T12:55:40.718Z,18.13
2024-05-09T12:58:19.339Z,16.83
2024-05-09T13:00:47.385Z,17.02
2024-05-09T13:03:15.205Z,17.05
2024-05-09T13:05:45.147Z,17.33
2024-05-09T13:08:13.557Z,18.27
2024-05-09T13:10:41.286Z,23.08
2024-05-09T13:13:10.474Z,18.10
2024-05-09T13:15:37.966Z,17.95
2024-05-09T13:18:06.006Z,18.40
2024-05-09T13:20:35.556Z,18.00
2024-05-09T13:23:05.729Z,17.30
2024-05-09T13:25:37.121Z,16.23
2024-05-09T13:28:06.732Z,21.25
2024-05-09T13:30:39.610Z,21.48
2024-05-09T13:33:11.556Z,16.83
2024-05-09T13:35:46.792Z,17.17
2024-05-09T13:38:18.318Z,16.27
2024-05-09T13:40:47.618Z,16.25
2024-05-09T13:43:15.385Z,17.10
2024-05-09T13:45:42.946Z,17.00
2024-05-09T13:48:10.655Z,16.80
2024-05-09T13:50:39.261Z,16.40
2024-05-09T13:53:07.956Z,16.38
2024-05-09T13:55:38.924Z,22.13
2024-05-09T13:58:07.174Z,22.25
2024-05-09T14:00:44.266Z,22.20
2024-05-09T14:03:17.636Z,21.63
2024-05-09T14:05:47.176Z,21.33
2024-05-09T14:08:15.920Z,18.67
2024-05-09T14:10:47.262Z,19.90
2024-05-09T14:13:15.719Z,18.77
2024-05-09T14:15:43.211Z,17.52
2024-05-09T14:18:13.421Z,20.65
2024-05-09T14:20:42.191Z,20.40
2024-05-09T14:23:09.816Z,21.73
2024-05-09T14:25:42.039Z,21.00
2024-05-09T14:28:11.236Z,19.30
2024-05-09T14:30:39.305Z,16.70
2024-05-09T14:33:08.623Z,17.35
2024-05-09T14:35:38.260Z,17.33
2024-05-09T14:38:07.641Z,16.92
2024-05-09T14:40:41.546Z,17.42
2024-05-09T14:43:12.569Z,22.38
2024-05-09T14:45:40.825Z,22.33
2024-05-09T14:48:08.990Z,20.60
2024-05-09T14:50:39.216Z,20.88
2024-05-09T14:53:09.300Z,20.35
2024-05-09T14:55:39.664Z,20.35
2024-05-09T14:58:09.460Z,20.27
2024-05-09T15:00:46.310Z,20.23
2024-05-09T15:03:17.960Z,20.05
2024-05-09T15:05:45.712Z,19.52
2024-05-09T15:08:12.956Z,17.73
2024-05-09T15:10:40.342Z,20.02
2024-05-09T15:13:09.827Z,20.30
2024-05-09T15:15:38.709Z,20.40
2024-05-09T15:18:06.600Z,20.17
2024-05-09T15:20:36.781Z,19.98
2024-05-09T15:23:06.944Z,18.48
2024-05-09T15:25:36.149Z,21.10
2024-05-09T15:28:05.025Z,20.40
2024-05-09T15:30:33.914Z,19.85
2024-05-09T15:33:06.438Z,19.48
2024-05-09T15:35:34.947Z,19.52
2024-05-09T15:38:05.752Z,19.30
2024-05-09T15:40:39.526Z,19.40
2024-05-09T15:43:10.239Z,19.58
2024-05-09T15:45:39.968Z,19.52
2024-05-09T15:48:09.378Z,19.35
2024-05-09T15:50:40.806Z,19.73
2024-05-09T15:53:10.491Z,18.77
2024-05-09T15:55:38.498Z,19.50
2024-05-09T15:58:07.195Z,19.17
2024-05-09T16:00:39.288Z,19.23
2024-05-09T16:03:12.004Z,18.38
2024-05-09T16:05:41.751Z,18.52
2024-05-09T16:08:09.535Z,18.15
2024-05-09T16:10:43.476Z,18.42
2024-05-09T16:13:12.188Z,18.65
2024-05-09T16:15:40.960Z,18.63
2024-05-09T16:18:08.634Z,18.70
2024-05-09T16:20:40.173Z,18.48
2024-05-09T16:23:10.399Z,16.63
2024-05-09T16:25:37.849Z,16.80
2024-05-09T16:28:08.913Z,16.98
2024-05-09T16:30:39.788Z,16.80
2024-05-09T16:33:08.427Z,18.00
2024-05-09T16:35:36.622Z,18.70
2024-05-09T16:38:04.400Z,18.02
2024-05-09T16:40:38.027Z,18.10
2024-05-09T16:43:12.018Z,16.98
2024-05-09T16:45:41.086Z,16.92
2024-05-09T16:48:09.265Z,17.15
2024-05-09T16:50:36.960Z,16.90
2024-05-09T16:53:06.162Z,16.83
2024-05-09T16:55:34.626Z,17.25
2024-05-09T16:58:02.682Z,17.55
2024-05-09T17:00:39.375Z,17.42
2024-05-09T17:03:11.784Z,16.40
2024-05-09T17:05:40.289Z,16.80
2024-05-09T17:08:08.446Z,16.35
2024-05-09T17:10:38.842Z,16.25
2024-05-09T17:13:07.695Z,15.65
2024-05-09T17:15:37.090Z,16.48
2024-05-09T17:18:06.262Z,16.80
2024-05-09T17:20:36.403Z,17.10
2024-05-09T17:23:13.408Z,16.88
2024-05-09T17:25:41.576Z,16.90
2024-05-09T17:28:09.946Z,16.70
2024-05-09T17:30:39.421Z,15.90
2024-05-09T17:33:09.572Z,15.60
2024-05-09T17:35:38.097Z,15.93
2024-05-09T17:38:06.707Z,15.82
2024-05-09T17:40:37.302Z,16.42
2024-05-09T17:43:09.426Z,17.30
2024-05-09T17:45:39.370Z,15.80
2024-05-09T17:48:08.276Z,15.88
2024-05-09T17:50:37.464Z,15.57
2024-05-09T17:53:08.902Z,15.70
2024-05-09T17:55:36.807Z,15.82
2024-05-09T17:58:05.374Z,16.15
2024-05-09T18:00:39.091Z,15.48
2024-05-09T18:03:12.427Z,15.35
2024-05-09T18:05:41.104Z,15.32
2024-05-09T18:08:08.943Z,16.13
2024-05-09T18:10:39.016Z,15.45
2024-05-09T18:13:11.291Z,15.90
2024-05-09T18:15:39.387Z,15.27
2024-05-09T18:18:07.668Z,15.52
2024-05-09T18:20:42.245Z,15.32
2024-05-09T18:23:18.031Z,15.30
2024-05-09T18:25:48.252Z,15.00
2024-05-09T18:28:16.932Z,15.60
2024-05-09T18:30:44.895Z,14.98
2024-05-09T18:33:12.871Z,14.82
2024-05-09T18:35:43.405Z,14.80
2024-05-09T18:38:10.947Z,15.75
2024-05-09T18:40:39.472Z,15.82
2024-05-09T18:43:09.104Z,15.80
2024-05-09T18:45:39.872Z,15.35
2024-05-09T18:48:09.996Z,15.55
2024-05-09T18:50:40.425Z,15.57
2024-05-09T18:53:13.089Z,15.57
2024-05-09T18:55:42.489Z,15.40
2024-05-09T18:58:10.012Z,15.43
2024-05-09T19:00:40.071Z,14.35
2024-05-09T19:03:12.608Z,14.77
2024-05-09T19:05:43.226Z,15.20
2024-05-09T19:08:11.742Z,19.52
2024-05-09T19:10:39.557Z,16.02
2024-05-09T19:13:12.924Z,14.77
2024-05-09T19:18:10.474Z,15.82
2024-05-09T19:20:38.636Z,15.02
2024-05-09T19:23:06.939Z,15.73
2024-05-09T19:25:35.350Z,15.38
2024-05-09T19:28:04.542Z,15.70
2024-05-09T19:30:38.778Z,15.23
2024-05-09T19:33:10.352Z,15.27
2024-05-09T19:35:39.289Z,15.77
2024-05-09T19:38:06.693Z,15.77
2024-05-09T19:40:35.301Z,15.90
2024-05-09T19:43:05.261Z,19.42
2024-05-09T19:45:34.573Z,15.88
2024-05-09T19:48:03.252Z,15.80
2024-05-09T19:50:37.397Z,16.55
2024-05-09T19:53:10.675Z,17.02
2024-05-09T19:55:38.470Z,16.17
2024-05-09T19:58:07.353Z,16.33
2024-05-09T20:00:39.420Z,15.52
2024-05-09T20:03:09.632Z,15.40
2024-05-09T20:05:37.930Z,15.20
2024-05-09T20:08:06.220Z,15.88
2024-05-09T20:10:35.533Z,16.90
2024-05-09T20:13:05.436Z,15.80
2024-05-09T20:15:35.563Z,15.20
2024-05-09T20:18:03.323Z,16.10
2024-05-09T20:20:37.537Z,15.63
2024-05-09T20:23:09.213Z,15.60
2024-05-09T20:25:36.614Z,15.48
2024-05-09T20:28:04.335Z,15.68
2024-05-09T20:30:34.188Z,15.77
2024-05-09T20:33:04.402Z,16.20
2024-05-09T20:35:33.094Z,15.50
2024-05-09T20:38:03.213Z,15.95
2024-05-09T20:40:35.238Z,16.38
2024-05-09T20:43:08.132Z,15.88
2024-05-09T20:45:36.035Z,16.05
2024-05-09T20:48:03.486Z,16.27
2024-05-09T20:50:37.761Z,15.80
2024-05-09T20:53:13.817Z,16.45
2024-05-09T20:55:42.687Z,16.27
2024-05-09T20:58:10.487Z,15.73
2024-05-09T21:00:41.563Z,16.52
2024-05-09T21:03:12.743Z,16.35
2024-05-09T21:05:41.062Z,16.10
2024-05-09T21:08:08.881Z,15.93
2024-05-09T21:10:37.170Z,16.15
2024-05-09T21:13:06.064Z,16.50
2024-05-09T21:15:34.238Z,16.33
2024-05-09T21:18:01.690Z,16.33
2024-05-09T21:20:32.924Z,16.20
2024-05-09T21:23:01.998Z,16.30
2024-05-09T21:25:30.177Z,16.65
2024-05-09T21:27:57.480Z,16.75
2024-05-09T21:30:36.990Z,16.80
2024-05-09T21:33:10.115Z,16.60
2024-05-09T21:35:39.448Z,16.67
2024-05-09T21:38:07.566Z,16.30
2024-05-09T21:40:36.690Z,16.67
2024-05-09T21:43:08.316Z,17.17
2024-05-09T21:45:37.373Z,16.77
2024-05-09T21:48:06.182Z,17.33
2024-05-09T21:50:39.918Z,17.15
2024-05-09T21:53:10.254Z,16.77
2024-05-09T21:55:37.549Z,16.88
2024-05-09T21:58:05.153Z,16.92
2024-05-09T22:00:36.921Z,16.73
2024-05-09T22:03:07.849Z,17.17
2024-05-09T22:05:36.168Z,17.08
2024-05-09T22:08:03.960Z,17.23
2024-05-09T22:10:34.912Z,17.02
2024-05-09T22:13:05.206Z,17.15
2024-05-09T22:15:36.428Z,16.98
2024-05-09T22:18:05.107Z,17.48
2024-05-09T22:20:37.326Z,17.42
2024-05-09T22:23:06.713Z,16.83
2024-05-09T22:25:34.194Z,16.65
2024-05-09T22:28:02.948Z,17.35
2024-05-09T22:30:36.727Z,17.65
2024-05-09T22:33:08.296Z,17.20
2024-05-09T22:35:36.420Z,17.70
2024-05-09T22:38:04.166Z,17.67
2024-05-09T22:40:42.266Z,17.55
2024-05-09T22:43:22.343Z,17.95
2024-05-09T22:45:51.883Z,17.48
2024-05-09T22:48:19.517Z,17.83
2024-05-09T22:50:47.764Z,18.15
2024-05-09T22:53:15.118Z,17.98
2024-05-09T22:55:42.824Z,17.75
2024-05-09T22:58:10.216Z,17.75
2024-05-09T23:00:37.641Z,18.02
2024-05-09T23:03:05.128Z,18.50
2024-05-09T23:05:33.046Z,18.38
2024-05-09T23:08:02.083Z,18.20
2024-05-09T23:10:35.719Z,17.92
2024-05-09T23:13:06.356Z,18.15
2024-05-09T23:15:33.829Z,18.27
2024-05-09T23:18:01.230Z,18.40
2024-05-09T23:20:36.672Z,18.67
2024-05-09T23:23:10.967Z,19.02
2024-05-09T23:25:39.446Z,18.35
2024-05-09T23:28:06.934Z,19.38
2024-05-09T23:30:38.709Z,18.50
2024-05-09T23:33:10.255Z,19.02
2024-05-09T23:35:37.941Z,19.13
2024-05-09T23:38:05.375Z,18.52
2024-05-09T23:43:03.296Z,18.85
2024-05-09T23:45:31.191Z,18.60
2024-05-09T23:47:58.558Z,18.25
2024-05-09T23:50:33.626Z,18.48
2024-05-09T23:53:03.994Z,18.27
2024-05-09T23:55:31.937Z,18.48
2024-05-09T23:57:59.636Z,18.25
